KFLD Airport Information

Runway Information
Runway 09 Length 3602 ft width 75 ft
Elevation 808 ft Threshold ft Heading 92
Runway 27 Length 3602 ft Width 75 ft
Elevation 788 ft Threshold ft Heading 272
Runway 18 Length 5941 ft width 100 ft
Elevation 783 ft Threshold ft Heading 180
Runway 36 Length 5941 ft Width 100 ft
Elevation 794 ft Threshold ft Heading 360
Airport Frequencies
Type ASOS Name ASOS Frequency 134 MHZ
Type CNTR Name CHICAGO CN Frequency 127 MHZ
Type RDO Name GREEN BAY Frequency 122.5 MHZ
Type UNIC Name CTAF/UNICO Frequency 122.8 MHZ
Airport Navaids
Airport Weather Information & NOTAM
ADDS - METARS form results

(0306 UTC 20 August 2022)
Data provider http://aviationweather.gov/metar/data/
 
METAR text: KFLD 200253Z AUTO 16005KT 10SM FEW080 21/17 A2991 RMK AO2 SLP124 60000 T02110167 51005
Conditions at: KFLD (FOND DU LAC , WI, US) observed 0253 UTC 20 August 2022
Temperature: 21.1°C (70°F)
Dewpoint: 16.7°C (62°F) [RH = 76%]
Pressure (altimeter): 29.91 inches Hg (1013.0 mb)
[Sea-level pressure: 1012.4 mb]
Winds: from the SSE (160 degrees) at 6 MPH (5 knots; 2.6 m/s)
Visibility: 10 or more miles (16+ km)
Ceiling: at least 12,000 feet AGL
Clouds: few clouds at 8000 feet AGL
Weather: automated observation with no human augmentation;
there may or may not be significant weather present at this time